createdAt,value
2019-01-10T00:00:18.168Z,95.16
2019-01-10T00:02:47.233Z,94.99
2019-01-10T00:05:16.621Z,95.03
2019-01-10T00:07:45.606Z,95.20
2019-01-10T00:10:15.555Z,95.19
2019-01-10T00:12:44.531Z,95.17
2019-01-10T00:15:15.772Z,95.24
2019-01-10T00:17:44.654Z,95.25
2019-01-10T00:20:14.453Z,95.30
2019-01-10T00:22:43.423Z,95.15
2019-01-10T00:25:12.465Z,95.21
2019-01-10T00:27:41.426Z,95.07
2019-01-10T00:30:16.408Z,95.21
2019-01-10T00:32:45.284Z,95.28
2019-01-10T00:35:14.500Z,95.15
2019-01-10T00:37:43.457Z,95.25
2019-01-10T00:40:13.949Z,95.34
2019-01-10T00:42:49.026Z,95.53
2019-01-10T00:45:15.539Z,95.52
2019-01-10T00:47:44.604Z,95.57
2019-01-10T00:50:16.073Z,95.57
2019-01-10T00:52:45.036Z,95.48
2019-01-10T00:55:14.588Z,95.54
2019-01-10T00:57:43.899Z,95.61
2019-01-10T01:00:18.844Z,95.63
2019-01-10T01:02:47.825Z,95.55
2019-01-10T01:05:17.027Z,95.44
2019-01-10T01:07:46.210Z,95.31
2019-01-10T01:10:17.637Z,95.26
2019-01-10T01:12:46.882Z,95.36
2019-01-10T01:15:16.852Z,95.43
2019-01-10T01:17:45.816Z,95.49
2019-01-10T01:20:17.538Z,95.49
2019-01-10T01:22:46.736Z,95.49
2019-01-10T01:25:16.099Z,95.54
2019-01-10T01:27:45.320Z,95.42
2019-01-10T01:30:19.357Z,95.28
2019-01-10T01:32:48.453Z,95.24
2019-01-10T01:35:17.964Z,95.12
2019-01-10T01:37:46.931Z,94.87
2019-01-10T01:40:20.390Z,94.48
2019-01-10T01:45:21.578Z,94.01
2019-01-10T01:47:50.556Z,93.62
2019-01-10T01:50:21.490Z,93.31
2019-01-10T01:52:50.448Z,93.08
2019-01-10T01:55:19.421Z,92.85
2019-01-10T01:57:48.434Z,92.89
2019-01-10T02:00:19.948Z,92.97
2019-01-10T02:02:48.942Z,93.03
2019-01-10T02:05:18.166Z,93.09
2019-01-10T02:07:47.148Z,92.85
2019-01-10T02:10:18.587Z,92.97
2019-01-10T02:12:47.576Z,93.13
2019-01-10T02:15:16.939Z,93.03
2019-01-10T02:17:49.309Z,93.03
2019-01-10T02:20:17.017Z,93.08
2019-01-10T02:22:46.341Z,93.48
2019-01-10T02:25:15.522Z,93.89
2019-01-10T02:27:44.510Z,94.13
2019-01-10T02:30:18.465Z,94.37
2019-01-10T02:32:47.427Z,94.28
2019-01-10T02:35:17.118Z,94.17
2019-01-10T02:37:46.694Z,94.22
2019-01-10T02:40:16.934Z,94.13
2019-01-10T02:42:45.898Z,94.33
2019-01-10T02:45:15.725Z,94.23
2019-01-10T02:47:44.818Z,94.58
2019-01-10T02:50:19.528Z,94.51
2019-01-10T02:52:48.692Z,94.66
2019-01-10T02:55:17.748Z,94.79
2019-01-10T02:57:46.706Z,95.05
2019-01-10T03:00:18.665Z,95.18
2019-01-10T03:02:47.771Z,95.15
2019-01-10T03:05:16.744Z,95.04
2019-01-10T03:07:45.687Z,94.80
2019-01-10T03:10:16.402Z,94.34
2019-01-10T03:12:45.346Z,93.91
2019-01-10T03:15:14.426Z,93.76
2019-01-10T03:17:43.585Z,93.30
2019-01-10T03:20:15.101Z,92.93
2019-01-10T03:22:43.972Z,93.02
2019-01-10T03:25:13.147Z,92.42
2019-01-10T03:27:42.097Z,92.47
2019-01-10T03:30:12.738Z,92.56
2019-01-10T03:32:41.620Z,92.27
2019-01-10T03:35:11.103Z,92.42
2019-01-10T03:37:40.054Z,92.52
2019-01-10T03:40:14.849Z,92.62
2019-01-10T03:42:43.805Z,92.91
2019-01-10T03:45:15.126Z,93.03
2019-01-10T03:47:44.078Z,93.13
2019-01-10T03:50:13.919Z,92.94
2019-01-10T03:52:43.018Z,92.80
2019-01-10T03:55:12.101Z,92.68
2019-01-10T03:57:41.056Z,92.53
2019-01-10T04:00:14.265Z,92.31
2019-01-10T04:02:43.151Z,92.41
2019-01-10T04:05:12.163Z,92.20
2019-01-10T04:07:41.043Z,92.55
2019-01-10T04:10:10.729Z,92.75
2019-01-10T04:12:39.704Z,92.65
2019-01-10T04:15:09.614Z,92.61
2019-01-10T04:17:38.519Z,92.45
2019-01-10T04:20:08.637Z,92.59
2019-01-10T04:22:37.603Z,92.84
2019-01-10T04:25:07.390Z,92.88
2019-01-10T04:27:36.388Z,92.81
2019-01-10T04:30:06.877Z,92.77
2019-01-10T04:32:35.772Z,92.71
2019-01-10T04:35:05.644Z,92.88
2019-01-10T04:37:34.624Z,93.07
2019-01-10T04:40:03.791Z,92.94
2019-01-10T04:42:32.697Z,92.90
2019-01-10T04:45:01.588Z,92.71
2019-01-10T04:47:32.517Z,92.83
2019-01-10T04:50:01.164Z,92.64
2019-01-10T04:52:30.010Z,92.66
2019-01-10T04:54:58.957Z,92.47
2019-01-10T04:57:27.868Z,92.63
2019-01-10T04:59:56.776Z,92.76
2019-01-10T05:02:25.817Z,92.70
2019-01-10T05:04:54.703Z,92.65
2019-01-10T05:07:23.794Z,92.63
2019-01-10T05:09:52.606Z,92.52
2019-01-10T05:12:21.500Z,92.48
2019-01-10T05:14:50.373Z,92.17
2019-01-10T05:17:19.279Z,92.31
2019-01-10T05:19:48.258Z,92.09
2019-01-10T05:22:17.077Z,91.75
2019-01-10T05:24:45.889Z,91.19
2019-01-10T05:27:14.848Z,91.04
2019-01-10T05:29:43.752Z,90.85
2019-01-10T05:32:12.703Z,90.73
2019-01-10T05:34:41.590Z,90.63
2019-01-10T05:37:10.576Z,90.53
2019-01-10T05:39:47.504Z,90.42
2019-01-10T05:42:10.001Z,90.50
2019-01-10T05:44:38.974Z,90.41
2019-01-10T05:47:07.953Z,89.93
2019-01-10T05:49:36.917Z,89.92
2019-01-10T05:52:05.874Z,90.04
2019-01-10T05:54:34.770Z,89.98
2019-01-10T05:57:03.925Z,90.08
2019-01-10T05:59:32.849Z,90.02
2019-01-10T06:02:01.742Z,90.22
2019-01-10T06:04:30.571Z,90.41
2019-01-10T06:06:59.542Z,90.58
2019-01-10T06:09:28.438Z,90.53
2019-01-10T06:11:57.321Z,90.33
2019-01-10T06:14:35.389Z,90.19
2019-01-10T06:16:56.824Z,90.57
2019-01-10T06:19:26.981Z,90.49
2019-01-10T06:21:56.197Z,90.26
2019-01-10T06:24:25.030Z,90.31
2019-01-10T06:26:54.219Z,90.67
2019-01-10T06:29:23.123Z,90.82
2019-01-10T06:31:51.919Z,90.78
2019-01-10T06:34:20.928Z,90.27
2019-01-10T06:36:49.705Z,90.20
2019-01-10T06:39:19.836Z,89.99
2019-01-10T06:41:48.927Z,90.08
2019-01-10T06:44:17.796Z,90.30
2019-01-10T06:46:46.632Z,90.60
2019-01-10T06:49:15.641Z,90.62
2019-01-10T06:51:44.577Z,91.09
2019-01-10T06:54:13.470Z,91.16
2019-01-10T06:56:44.467Z,91.30
2019-01-10T06:59:12.881Z,91.47
2019-01-10T07:01:41.757Z,91.54
2019-01-10T07:04:10.647Z,91.56
2019-01-10T07:06:39.530Z,91.68
2019-01-10T07:09:09.188Z,91.38
2019-01-10T07:11:38.006Z,91.29
2019-01-10T07:14:06.970Z,91.61
2019-01-10T07:16:35.793Z,91.85
2019-01-10T07:19:04.749Z,92.19
2019-01-10T07:21:55.998Z,92.09
2019-01-10T07:24:26.248Z,92.36
2019-01-10T07:26:58.609Z,92.49
2019-01-10T07:29:27.553Z,92.51
2019-01-10T07:32:00.821Z,92.66
2019-01-10T07:34:29.717Z,92.77
2019-01-10T07:36:58.688Z,92.97
2019-01-10T07:39:27.643Z,93.09
2019-01-10T07:41:56.594Z,93.10
2019-01-10T07:44:26.261Z,93.17
2019-01-10T07:46:55.075Z,93.22
2019-01-10T07:49:27.227Z,93.17
2019-01-10T07:51:56.290Z,93.03
2019-01-10T07:54:25.164Z,92.62
2019-01-10T07:56:53.998Z,92.32
2019-01-10T07:59:22.806Z,92.03
2019-01-10T08:01:51.796Z,91.99
2019-01-10T08:04:20.669Z,92.24
2019-01-10T08:06:49.487Z,92.03
2019-01-10T08:09:18.445Z,91.51
2019-01-10T08:11:47.418Z,91.03
2019-01-10T08:14:16.381Z,91.09
2019-01-10T08:16:45.368Z,90.75
2019-01-10T08:19:14.255Z,90.67
2019-01-10T08:21:43.216Z,90.40
2019-01-10T08:24:12.112Z,89.88
2019-01-10T08:26:41.170Z,89.56
2019-01-10T08:29:10.106Z,89.61
2019-01-10T08:31:38.991Z,89.88
2019-01-10T08:34:07.952Z,90.46
2019-01-10T08:36:36.921Z,91.54
2019-01-10T08:39:08.325Z,91.64
2019-01-10T08:41:37.380Z,92.03
2019-01-10T08:44:06.344Z,91.87
2019-01-10T08:46:35.323Z,91.75
2019-01-10T08:49:04.292Z,91.18
2019-01-10T08:51:33.208Z,91.46
2019-01-10T08:54:02.090Z,91.37
2019-01-10T08:56:31.048Z,90.85
2019-01-10T08:58:59.930Z,89.32
2019-01-10T09:01:28.992Z,88.32
2019-01-10T09:03:57.895Z,87.73
2019-01-10T09:06:26.837Z,87.42
2019-01-10T09:08:55.737Z,87.33
2019-01-10T09:11:24.698Z,87.41
2019-01-10T09:13:53.676Z,87.58
2019-01-10T09:16:22.635Z,87.33
2019-01-10T09:18:51.534Z,86.31
2019-01-10T09:21:20.501Z,86.45
2019-01-10T09:23:49.404Z,86.33
2019-01-10T09:26:18.210Z,84.81
2019-01-10T09:28:47.152Z,84.27
2019-01-10T09:31:16.041Z,83.25
2019-01-10T09:33:44.997Z,83.93
2019-01-10T09:36:13.907Z,83.57
2019-01-10T09:38:42.801Z,83.24
2019-01-10T09:41:11.687Z,83.12
2019-01-10T09:43:40.504Z,82.00
2019-01-10T09:46:09.471Z,82.58
2019-01-10T09:48:38.381Z,82.24
2019-01-10T09:51:07.337Z,82.07
2019-01-10T09:53:36.309Z,80.95
2019-01-10T09:56:05.682Z,80.27
2019-01-10T09:58:34.556Z,79.82
2019-01-10T10:01:03.556Z,79.89
2019-01-10T10:03:32.513Z,78.97
2019-01-10T10:06:07.511Z,79.21
2019-01-10T10:08:32.111Z,78.63
2019-01-10T10:11:01.091Z,78.56
2019-01-10T10:13:30.043Z,79.35
2019-01-10T10:15:59.017Z,77.93
2019-01-10T10:18:27.906Z,76.70
2019-01-10T10:20:56.865Z,75.49
2019-01-10T10:23:26.946Z,75.90
2019-01-10T10:25:56.162Z,75.31
2019-01-10T10:28:25.120Z,74.74
2019-01-10T10:30:55.224Z,74.46
2019-01-10T10:33:24.221Z,75.17
2019-01-10T10:35:53.142Z,74.19
2019-01-10T10:38:22.156Z,73.43
2019-01-10T10:40:51.265Z,74.02
2019-01-10T10:43:20.223Z,73.69
2019-01-10T10:45:49.130Z,72.81
2019-01-10T10:48:18.003Z,72.49
2019-01-10T10:50:46.998Z,71.52
2019-01-10T10:53:16.010Z,69.45
2019-01-10T10:55:44.914Z,70.49
2019-01-10T10:58:13.813Z,70.09
2019-01-10T11:00:42.780Z,70.93
2019-01-10T11:03:11.757Z,70.72
2019-01-10T11:05:40.717Z,69.66
2019-01-10T11:08:09.868Z,70.10
2019-01-10T11:10:38.750Z,70.28
2019-01-10T11:13:07.723Z,70.64
2019-01-10T11:15:36.690Z,70.95
2019-01-10T11:18:05.977Z,71.48
2019-01-10T11:20:34.922Z,70.87
2019-01-10T11:23:10.424Z,71.80
2019-01-10T11:25:34.675Z,73.39
2019-01-10T11:28:03.953Z,73.17
2019-01-10T11:30:33.401Z,72.59
2019-01-10T11:33:02.291Z,71.36
2019-01-10T11:35:31.250Z,71.49
2019-01-10T11:38:00.209Z,69.55
2019-01-10T11:40:29.085Z,71.74
2019-01-10T11:42:57.972Z,71.87
2019-01-10T11:45:27.788Z,73.35
2019-01-10T11:47:56.634Z,72.31
2019-01-10T11:50:25.586Z,73.78
2019-01-10T11:52:54.575Z,74.27
2019-01-10T11:55:23.705Z,73.72
2019-01-10T11:57:52.658Z,74.19
2019-01-10T12:00:29.710Z,74.07
2019-01-10T12:02:59.148Z,74.51
2019-01-10T12:05:28.233Z,73.74
2019-01-10T12:07:57.201Z,74.67
2019-01-10T12:10:26.225Z,75.07
2019-01-10T12:12:55.211Z,75.67
2019-01-10T12:15:24.247Z,75.12
2019-01-10T12:17:53.212Z,75.85
2019-01-10T12:20:22.167Z,77.25
2019-01-10T12:22:51.222Z,77.54
2019-01-10T12:25:20.270Z,77.98
2019-01-10T12:27:49.447Z,77.08
2019-01-10T12:30:26.225Z,77.40
2019-01-10T12:32:55.183Z,76.62
2019-01-10T12:35:24.970Z,76.96
2019-01-10T12:37:53.937Z,77.05
2019-01-10T12:40:22.895Z,76.51
2019-01-10T12:42:51.853Z,76.00
2019-01-10T12:45:21.481Z,76.75
2019-01-10T12:47:50.386Z,77.04
2019-01-10T12:50:21.681Z,77.22
2019-01-10T12:52:50.640Z,78.13
2019-01-10T12:55:19.542Z,77.37
2019-01-10T12:57:48.693Z,78.08
2019-01-10T13:00:19.359Z,78.05
2019-01-10T13:02:48.323Z,78.91
2019-01-10T13:05:17.289Z,78.49
2019-01-10T13:07:46.253Z,78.91
2019-01-10T13:10:17.439Z,79.66
2019-01-10T13:12:46.782Z,79.27
2019-01-10T13:15:18.059Z,79.63
2019-01-10T13:17:47.023Z,80.43
2019-01-10T13:20:16.255Z,81.05
2019-01-10T13:22:45.203Z,81.54
2019-01-10T13:25:15.862Z,81.15
2019-01-10T13:27:44.837Z,81.78
2019-01-10T13:30:18.990Z,82.29
2019-01-10T13:32:48.502Z,80.95
2019-01-10T13:35:17.509Z,81.72
2019-01-10T13:37:46.509Z,82.43
2019-01-10T13:40:15.986Z,82.68
2019-01-10T13:42:45.263Z,82.04
2019-01-10T13:45:16.102Z,82.59
2019-01-10T13:47:47.594Z,82.43
2019-01-10T13:50:18.993Z,82.06
2019-01-10T13:52:47.979Z,83.53
2019-01-10T13:55:17.594Z,83.86
2019-01-10T13:57:46.562Z,82.92
2019-01-10T14:00:38.786Z,82.70
2019-01-10T14:03:11.613Z,83.18
2019-01-10T14:05:38.365Z,84.12
2019-01-10T14:08:07.366Z,84.04
2019-01-10T14:10:36.310Z,83.97
2019-01-10T14:13:05.279Z,83.37
2019-01-10T14:15:35.538Z,83.13
2019-01-10T14:18:06.153Z,82.02
2019-01-10T14:20:35.605Z,81.33
2019-01-10T14:23:04.805Z,80.35
2019-01-10T14:25:33.913Z,80.97
2019-01-10T14:28:02.872Z,80.55
2019-01-10T14:30:37.981Z,80.26
2019-01-10T14:33:09.306Z,79.42
2019-01-10T14:35:38.289Z,78.78
2019-01-10T14:38:07.549Z,77.74
2019-01-10T14:40:36.558Z,77.23
2019-01-10T14:43:05.555Z,78.04
2019-01-10T14:45:37.264Z,78.41
2019-01-10T14:48:06.476Z,78.11
2019-01-10T14:50:35.645Z,77.71
2019-01-10T14:53:04.868Z,78.32
2019-01-10T14:55:33.842Z,78.03
2019-01-10T14:58:02.796Z,77.68
2019-01-10T15:00:31.761Z,76.96
2019-01-10T15:03:00.926Z,78.09
2019-01-10T15:05:34.421Z,78.68
2019-01-10T15:08:00.728Z,78.82
2019-01-10T15:10:29.637Z,78.67
2019-01-10T15:12:58.595Z,79.04
2019-01-10T15:15:27.557Z,78.31
2019-01-10T15:17:56.562Z,79.29
2019-01-10T15:20:27.971Z,78.56
2019-01-10T15:22:56.869Z,78.30
2019-01-10T15:25:25.826Z,78.71
2019-01-10T15:27:54.984Z,79.02
2019-01-10T15:30:25.694Z,79.03
2019-01-10T15:32:54.610Z,78.93
2019-01-10T15:35:23.947Z,79.00
2019-01-10T15:37:52.917Z,79.19
2019-01-10T15:40:25.347Z,78.94
2019-01-10T15:42:54.350Z,79.32
2019-01-10T15:45:23.390Z,78.80
2019-01-10T15:47:52.342Z,78.75
2019-01-10T15:50:21.320Z,79.37
2019-01-10T15:52:50.322Z,79.65
2019-01-10T15:55:19.518Z,79.42
2019-01-10T15:57:48.511Z,79.70
2019-01-10T16:00:22.405Z,80.11
2019-01-10T16:02:51.732Z,79.43
2019-01-10T16:05:20.722Z,79.44
2019-01-10T16:07:50.208Z,79.89
2019-01-10T16:10:19.808Z,79.93
2019-01-10T16:12:49.747Z,79.37
2019-01-10T16:15:20.959Z,79.35
2019-01-10T16:17:49.991Z,79.50
2019-01-10T16:20:18.966Z,79.41
2019-01-10T16:22:48.068Z,79.62
2019-01-10T16:25:17.119Z,78.66
2019-01-10T16:27:46.090Z,79.15
2019-01-10T16:30:22.876Z,79.29
2019-01-10T16:32:51.838Z,79.17
2019-01-10T16:35:20.803Z,78.90
2019-01-10T16:37:49.767Z,78.19
2019-01-10T16:40:18.729Z,78.31
2019-01-10T16:42:47.625Z,78.31
2019-01-10T16:45:19.519Z,77.64
2019-01-10T16:47:48.423Z,77.72
2019-01-10T16:50:17.576Z,77.16
2019-01-10T16:52:46.555Z,76.68
2019-01-10T16:55:15.810Z,76.95
2019-01-10T16:57:44.810Z,76.55
2019-01-10T17:00:23.630Z,76.97
2019-01-10T17:02:52.588Z,76.86
2019-01-10T17:05:21.540Z,77.30
2019-01-10T17:07:50.624Z,76.43
2019-01-10T17:10:19.885Z,77.21
2019-01-10T17:12:48.853Z,77.19
2019-01-10T17:15:17.835Z,76.91
2019-01-10T17:17:46.793Z,76.17
2019-01-10T17:20:17.945Z,76.49
2019-01-10T17:22:46.895Z,75.89
2019-01-10T17:25:16.319Z,75.64
2019-01-10T17:27:45.277Z,76.26
2019-01-10T17:30:20.756Z,76.27
2019-01-10T17:32:49.702Z,76.21
2019-01-10T17:35:20.283Z,76.01
2019-01-10T17:37:49.314Z,75.89
2019-01-10T17:40:19.695Z,76.60
2019-01-10T17:42:49.013Z,76.04
2019-01-10T17:45:20.013Z,75.89
2019-01-10T17:47:48.907Z,75.96
2019-01-10T17:50:18.446Z,76.35
2019-01-10T17:52:47.401Z,76.04
2019-01-10T17:55:16.357Z,76.58
2019-01-10T17:57:45.319Z,76.42
2019-01-10T18:00:20.035Z,75.68
2019-01-10T18:02:48.993Z,76.07
2019-01-10T18:05:17.945Z,76.71
2019-01-10T18:07:46.915Z,76.69
2019-01-10T18:10:17.173Z,76.38
2019-01-10T18:12:46.125Z,75.56
2019-01-10T18:15:17.687Z,75.63
2019-01-10T18:17:50.242Z,76.44
2019-01-10T18:20:26.013Z,76.28
2019-01-10T18:22:55.272Z,76.09
2019-01-10T18:25:24.240Z,76.41
2019-01-10T18:27:53.121Z,76.10
2019-01-10T18:30:22.510Z,76.04
2019-01-10T18:32:51.757Z,75.88
2019-01-10T18:35:25.966Z,75.58
2019-01-10T18:37:51.371Z,76.11
2019-01-10T18:40:20.265Z,75.55
2019-01-10T18:42:49.082Z,76.62
2019-01-10T18:45:20.639Z,76.63
2019-01-10T18:47:49.607Z,76.90
2019-01-10T18:50:20.178Z,76.71
2019-01-10T18:52:49.130Z,76.21
2019-01-10T18:55:18.100Z,76.17
2019-01-10T18:57:47.006Z,75.74
2019-01-10T19:00:21.560Z,74.78
2019-01-10T19:02:50.497Z,75.42
2019-01-10T19:05:19.469Z,75.71
2019-01-10T19:07:48.451Z,75.61
2019-01-10T19:10:18.873Z,75.74
2019-01-10T19:12:47.833Z,75.87
2019-01-10T19:15:17.090Z,76.28
2019-01-10T19:17:46.042Z,75.85
2019-01-10T19:20:17.587Z,75.83
2019-01-10T19:22:46.551Z,75.63
2019-01-10T19:25:15.432Z,75.68
2019-01-10T19:27:44.312Z,76.25
2019-01-10T19:30:16.002Z,75.94
2019-01-10T19:32:44.974Z,75.48
2019-01-10T19:35:13.939Z,75.55
2019-01-10T19:37:42.918Z,75.78
2019-01-10T19:40:15.281Z,76.01
2019-01-10T19:42:44.180Z,75.98
2019-01-10T19:45:14.481Z,75.84
2019-01-10T19:47:43.459Z,75.91
2019-01-10T19:50:14.925Z,76.34
2019-01-10T19:52:43.975Z,76.29
2019-01-10T19:55:14.048Z,76.22
2019-01-10T19:57:42.954Z,76.35
2019-01-10T20:00:27.090Z,75.82
2019-01-10T20:02:56.061Z,75.84
2019-01-10T20:05:25.070Z,76.20
2019-01-10T20:07:54.037Z,75.45
2019-01-10T20:10:22.942Z,75.42
2019-01-10T20:12:52.118Z,75.27
2019-01-10T20:15:21.372Z,74.87
2019-01-10T20:17:50.529Z,75.01
2019-01-10T20:20:31.765Z,75.16
2019-01-10T20:23:01.185Z,75.28
2019-01-10T20:25:30.196Z,75.44
2019-01-10T20:27:59.761Z,74.85
2019-01-10T20:30:28.737Z,74.39
2019-01-10T20:32:57.748Z,74.18
2019-01-10T20:35:26.613Z,74.55
2019-01-10T20:37:55.593Z,74.22
2019-01-10T20:40:24.562Z,74.79
2019-01-10T20:42:53.462Z,75.38
2019-01-10T20:45:22.437Z,75.67
2019-01-10T20:47:51.588Z,76.01
2019-01-10T20:50:20.589Z,75.98
2019-01-10T20:52:49.558Z,75.96
2019-01-10T20:55:18.716Z,75.89
2019-01-10T20:57:47.964Z,75.80
2019-01-10T21:00:21.410Z,76.15
2019-01-10T21:02:50.878Z,75.81
2019-01-10T21:05:20.166Z,75.84
2019-01-10T21:07:50.313Z,75.91
2019-01-10T21:10:19.869Z,76.01
2019-01-10T21:12:49.321Z,76.39
2019-01-10T21:15:23.573Z,75.81
2019-01-10T21:17:52.558Z,75.33
2019-01-10T21:20:21.772Z,75.37
2019-01-10T21:22:50.740Z,75.59
2019-01-10T21:25:19.712Z,75.15
2019-01-10T21:27:48.673Z,75.11
2019-01-10T21:30:19.078Z,74.86
2019-01-10T21:32:49.615Z,74.84
2019-01-10T21:35:18.879Z,74.44
2019-01-10T21:37:47.766Z,74.41
2019-01-10T21:40:18.923Z,74.87
2019-01-10T21:42:49.175Z,74.66
2019-01-10T21:45:19.450Z,74.79
2019-01-10T21:47:48.409Z,74.82
2019-01-10T21:50:19.612Z,75.19
2019-01-10T21:52:48.516Z,74.89
2019-01-10T21:55:17.495Z,75.25
2019-01-10T21:57:46.867Z,74.83
2019-01-10T22:00:27.102Z,75.01
2019-01-10T22:02:56.653Z,75.27
2019-01-10T22:05:25.708Z,75.45
2019-01-10T22:07:54.766Z,75.18
2019-01-10T22:10:23.813Z,75.10
2019-01-10T22:12:52.789Z,75.08
2019-01-10T22:15:21.764Z,75.28
2019-01-10T22:17:50.728Z,74.86
2019-01-10T22:20:20.539Z,75.08
2019-01-10T22:22:49.512Z,75.57
2019-01-10T22:25:18.687Z,75.41
2019-01-10T22:27:47.673Z,75.48
2019-01-10T22:30:19.038Z,75.64
2019-01-10T22:32:48.510Z,75.66
2019-01-10T22:35:19.103Z,75.71
2019-01-10T22:37:48.265Z,75.47
2019-01-10T22:40:19.032Z,75.81
2019-01-10T22:42:48.023Z,76.05
2019-01-10T22:45:17.566Z,75.98
2019-01-10T22:47:46.452Z,75.83
2019-01-10T22:50:17.458Z,75.77
2019-01-10T22:52:46.286Z,75.89
2019-01-10T22:55:15.623Z,75.64
2019-01-10T22:57:44.592Z,75.75
2019-01-10T23:00:35.095Z,75.86
2019-01-10T23:03:07.313Z,76.23
2019-01-10T23:05:40.004Z,76.28
2019-01-10T23:08:08.897Z,76.74
2019-01-10T23:10:37.868Z,76.74
2019-01-10T23:13:06.858Z,76.73
2019-01-10T23:15:35.819Z,76.55
2019-01-10T23:18:06.988Z,77.15
2019-01-10T23:20:35.886Z,76.79
2019-01-10T23:23:07.440Z,77.28
2019-01-10T23:25:36.530Z,77.22
2019-01-10T23:28:06.107Z,76.93
2019-01-10T23:30:49.421Z,76.80
2019-01-10T23:33:19.472Z,76.97
2019-01-10T23:35:49.184Z,77.53
2019-01-10T23:38:22.663Z,77.81
2019-01-10T23:40:51.678Z,77.90
2019-01-10T23:43:20.667Z,77.54
2019-01-10T23:45:50.028Z,77.84
2019-01-10T23:48:18.906Z,77.74
2019-01-10T23:50:47.917Z,77.97
2019-01-10T23:53:16.862Z,77.89
2019-01-10T23:55:45.760Z,77.53
2019-01-10T23:58:14.664Z,77.91
